sensor_id;sensor_type;location;lat;lon;timestamp;pressure;altitude;pressure_sealevel;temperature;humidity
6524;BME280;3295;38.928;-77.052;2023-02-22T00:00:39;100095.22;;;17.30;33.11
6524;BME280;3295;38.928;-77.052;2023-02-22T00:03:12;100100.50;;;17.42;33.07
6524;BME280;3295;38.928;-77.052;2023-02-22T00:05:41;100100.56;;;17.50;32.79
6524;BME280;3295;38.928;-77.052;2023-02-22T00:08:13;100105.66;;;17.44;32.13
6524;BME280;3295;38.928;-77.052;2023-02-22T00:10:41;100109.75;;;17.25;32.77
6524;BME280;3295;38.928;-77.052;2023-02-22T00:13:12;100120.94;;;17.27;32.25
6524;BME280;3295;38.928;-77.052;2023-02-22T00:15:40;100115.75;;;17.21;32.49
6524;BME280;3295;38.928;-77.052;2023-02-22T00:18:12;100112.31;;;17.22;32.29
6524;BME280;3295;38.928;-77.052;2023-02-22T00:20:40;100113.88;;;17.11;32.89
6524;BME280;3295;38.928;-77.052;2023-02-22T00:23:13;100112.25;;;17.16;32.20
6524;BME280;3295;38.928;-77.052;2023-02-22T00:25:44;100119.84;;;17.03;32.12
6524;BME280;3295;38.928;-77.052;2023-02-22T00:28:12;100119.84;;;17.05;32.21
6524;BME280;3295;38.928;-77.052;2023-02-22T00:30:42;100131.91;;;17.06;32.13
6524;BME280;3295;38.928;-77.052;2023-02-22T00:33:13;100130.03;;;16.96;31.34
6524;BME280;3295;38.928;-77.052;2023-02-22T00:35:41;100135.22;;;16.99;31.48
6524;BME280;3295;38.928;-77.052;2023-02-22T00:38:11;100139.56;;;17.03;31.91
6524;BME280;3295;38.928;-77.052;2023-02-22T00:40:39;100144.50;;;16.86;31.65
6524;BME280;3295;38.928;-77.052;2023-02-22T00:43:08;100153.94;;;16.84;31.45
6524;BME280;3295;38.928;-77.052;2023-02-22T00:45:36;100154.91;;;16.95;31.40
6524;BME280;3295;38.928;-77.052;2023-02-22T00:48:05;100175.47;;;16.89;32.02
6524;BME280;3295;38.928;-77.052;2023-02-22T00:50:35;100177.94;;;16.83;32.05
6524;BME280;3295;38.928;-77.052;2023-02-22T00:53:04;100162.63;;;16.91;31.86
6524;BME280;3295;38.928;-77.052;2023-02-22T00:55:34;100163.28;;;16.76;31.65
6524;BME280;3295;38.928;-77.052;2023-02-22T00:58:03;100161.44;;;16.66;31.91
6524;BME280;3295;38.928;-77.052;2023-02-22T01:00:35;100177.75;;;16.66;32.26
6524;BME280;3295;38.928;-77.052;2023-02-22T01:03:04;100205.22;;;16.69;32.04
6524;BME280;3295;38.928;-77.052;2023-02-22T01:05:33;100211.03;;;16.59;31.70
6524;BME280;3295;38.928;-77.052;2023-02-22T01:08:04;100224.81;;;16.61;31.77
6524;BME280;3295;38.928;-77.052;2023-02-22T01:10:33;100239.28;;;16.54;31.86
6524;BME280;3295;38.928;-77.052;2023-02-22T01:13:01;100251.34;;;16.57;31.69
6524;BME280;3295;38.928;-77.052;2023-02-22T01:15:34;100262.34;;;16.47;31.15
6524;BME280;3295;38.928;-77.052;2023-02-22T01:18:02;100266.59;;;16.45;31.77
6524;BME280;3295;38.928;-77.052;2023-02-22T01:20:32;100252.09;;;16.50;31.58
6524;BME280;3295;38.928;-77.052;2023-02-22T01:23:02;100246.78;;;16.41;31.92
6524;BME280;3295;38.928;-77.052;2023-02-22T01:25:31;100256.19;;;16.37;31.14
6524;BME280;3295;38.928;-77.052;2023-02-22T01:28:01;100262.97;;;16.33;31.33
6524;BME280;3295;38.928;-77.052;2023-02-22T01:30:31;100262.22;;;16.41;31.09
6524;BME280;3295;38.928;-77.052;2023-02-22T01:33:00;100274.31;;;16.45;31.31
6524;BME280;3295;38.928;-77.052;2023-02-22T01:38:30;100270.81;;;16.40;30.45
6524;BME280;3295;38.928;-77.052;2023-02-22T01:40:59;100286.13;;;16.33;30.90
6524;BME280;3295;38.928;-77.052;2023-02-22T01:43:28;100302.44;;;16.34;30.82
6524;BME280;3295;38.928;-77.052;2023-02-22T01:45:59;100299.00;;;16.33;31.46
6524;BME280;3295;38.928;-77.052;2023-02-22T01:48:34;100303.25;;;16.31;31.59
6524;BME280;3295;38.928;-77.052;2023-02-22T01:51:05;100315.50;;;16.45;31.18
6524;BME280;3295;38.928;-77.052;2023-02-22T01:53:42;100318.09;;;16.46;31.00
6524;BME280;3295;38.928;-77.052;2023-02-22T01:56:11;100332.69;;;16.46;31.24
6524;BME280;3295;38.928;-77.052;2023-02-22T01:58:48;100336.84;;;16.38;30.88
6524;BME280;3295;38.928;-77.052;2023-02-22T02:01:19;100339.50;;;16.44;30.95
6524;BME280;3295;38.928;-77.052;2023-02-22T02:03:48;100346.09;;;16.29;31.22
6524;BME280;3295;38.928;-77.052;2023-02-22T02:06:18;100354.72;;;16.31;31.90
6524;BME280;3295;38.928;-77.052;2023-02-22T02:08:53;100361.66;;;16.35;31.44
6524;BME280;3295;38.928;-77.052;2023-02-22T02:11:25;100363.34;;;16.33;30.96
6524;BME280;3295;38.928;-77.052;2023-02-22T02:13:55;100363.41;;;16.37;31.74
6524;BME280;3295;38.928;-77.052;2023-02-22T02:16:24;100375.31;;;16.31;31.60
6524;BME280;3295;38.928;-77.052;2023-02-22T02:18:53;100383.81;;;16.27;31.78
6524;BME280;3295;38.928;-77.052;2023-02-22T02:27:40;100398.41;;;16.28;31.21
6524;BME280;3295;38.928;-77.052;2023-02-22T02:33:32;100412.66;;;16.11;32.09
6524;BME280;3295;38.928;-77.052;2023-02-22T02:36:07;100414.13;;;16.00;31.82
6524;BME280;3295;38.928;-77.052;2023-02-22T02:38:40;100412.03;;;15.81;32.63
6524;BME280;3295;38.928;-77.052;2023-02-22T02:41:16;100413.69;;;15.79;32.42
6524;BME280;3295;38.928;-77.052;2023-02-22T02:43:53;100419.03;;;15.88;32.47
6524;BME280;3295;38.928;-77.052;2023-02-22T02:46:28;100431.91;;;15.89;32.02
6524;BME280;3295;38.928;-77.052;2023-02-22T02:49:02;100444.56;;;15.79;32.65
6524;BME280;3295;38.928;-77.052;2023-02-22T02:51:37;100459.22;;;15.83;32.17
6524;BME280;3295;38.928;-77.052;2023-02-22T02:54:07;100460.09;;;15.83;32.56
6524;BME280;3295;38.928;-77.052;2023-02-22T02:56:39;100456.50;;;15.77;33.54
6524;BME280;3295;38.928;-77.052;2023-02-22T02:59:23;100459.50;;;15.57;32.15
6524;BME280;3295;38.928;-77.052;2023-02-22T03:02:01;100451.84;;;15.60;32.32
6524;BME280;3295;38.928;-77.052;2023-02-22T03:04:47;100462.28;;;15.67;32.13
6524;BME280;3295;38.928;-77.052;2023-02-22T03:07:39;100469.16;;;15.68;32.03
6524;BME280;3295;38.928;-77.052;2023-02-22T03:10:20;100468.09;;;15.59;32.22
6524;BME280;3295;38.928;-77.052;2023-02-22T03:12:56;100469.91;;;15.63;31.91
6524;BME280;3295;38.928;-77.052;2023-02-22T03:15:34;100464.47;;;15.51;31.53
6524;BME280;3295;38.928;-77.052;2023-02-22T03:18:07;100477.31;;;15.51;32.06
6524;BME280;3295;38.928;-77.052;2023-02-22T03:20:43;100476.41;;;15.49;31.61
6524;BME280;3295;38.928;-77.052;2023-02-22T03:23:20;100462.72;;;15.50;31.69
6524;BME280;3295;38.928;-77.052;2023-02-22T03:25:53;100479.06;;;15.52;31.66
6524;BME280;3295;38.928;-77.052;2023-02-22T03:28:25;100489.13;;;15.43;32.34
6524;BME280;3295;38.928;-77.052;2023-02-22T03:30:58;100508.38;;;15.26;32.55
6524;BME280;3295;38.928;-77.052;2023-02-22T03:33:31;100508.91;;;15.13;32.90
6524;BME280;3295;38.928;-77.052;2023-02-22T03:36:08;100521.44;;;15.01;33.21
6524;BME280;3295;38.928;-77.052;2023-02-22T03:38:40;100525.56;;;14.96;33.62
6524;BME280;3295;38.928;-77.052;2023-02-22T03:41:18;100531.53;;;14.94;33.92
6524;BME280;3295;38.928;-77.052;2023-02-22T03:43:52;100535.09;;;15.00;33.68
6524;BME280;3295;38.928;-77.052;2023-02-22T03:46:22;100541.97;;;15.01;33.84
6524;BME280;3295;38.928;-77.052;2023-02-22T03:48:54;100547.03;;;14.98;34.46
6524;BME280;3295;38.928;-77.052;2023-02-22T03:51:27;100563.13;;;14.92;33.96
6524;BME280;3295;38.928;-77.052;2023-02-22T03:53:56;100553.91;;;14.99;34.50
6524;BME280;3295;38.928;-77.052;2023-02-22T03:56:27;100560.78;;;15.00;33.69
6524;BME280;3295;38.928;-77.052;2023-02-22T03:59:01;100577.50;;;14.85;33.78
6524;BME280;3295;38.928;-77.052;2023-02-22T04:01:29;100579.34;;;14.89;34.38
6524;BME280;3295;38.928;-77.052;2023-02-22T04:03:57;100573.28;;;14.87;34.17
6524;BME280;3295;38.928;-77.052;2023-02-22T04:06:27;100570.28;;;14.72;32.97
6524;BME280;3295;38.928;-77.052;2023-02-22T04:08:56;100572.47;;;14.58;33.45
6524;BME280;3295;38.928;-77.052;2023-02-22T04:11:24;100569.94;;;14.32;33.96
6524;BME280;3295;38.928;-77.052;2023-02-22T04:13:52;100568.63;;;14.44;32.28
6524;BME280;3295;38.928;-77.052;2023-02-22T04:16:22;100565.50;;;14.54;31.67
6524;BME280;3295;38.928;-77.052;2023-02-22T04:18:50;100559.69;;;14.60;32.34
6524;BME280;3295;38.928;-77.052;2023-02-22T04:21:18;100554.66;;;14.36;32.15
6524;BME280;3295;38.928;-77.052;2023-02-22T04:23:48;100555.91;;;14.49;32.34
6524;BME280;3295;38.928;-77.052;2023-02-22T04:26:16;100562.97;;;14.56;32.63
6524;BME280;3295;38.928;-77.052;2023-02-22T04:28:44;100572.63;;;14.65;32.16
6524;BME280;3295;38.928;-77.052;2023-02-22T04:31:12;100567.50;;;14.65;31.72
6524;BME280;3295;38.928;-77.052;2023-02-22T04:33:40;100572.47;;;14.58;31.41
6524;BME280;3295;38.928;-77.052;2023-02-22T04:36:09;100567.25;;;14.55;31.16
6524;BME280;3295;38.928;-77.052;2023-02-22T04:38:38;100580.13;;;14.57;29.88
6524;BME280;3295;38.928;-77.052;2023-02-22T04:41:08;100588.53;;;14.53;32.59
6524;BME280;3295;38.928;-77.052;2023-02-22T04:43:36;100598.69;;;14.48;32.58
6524;BME280;3295;38.928;-77.052;2023-02-22T04:46:04;100604.25;;;14.37;33.61
6524;BME280;3295;38.928;-77.052;2023-02-22T04:48:32;100616.72;;;14.24;33.69
6524;BME280;3295;38.928;-77.052;2023-02-22T04:51:00;100623.13;;;14.10;34.58
6524;BME280;3295;38.928;-77.052;2023-02-22T04:53:28;100618.09;;;14.13;34.26
6524;BME280;3295;38.928;-77.052;2023-02-22T04:55:57;100621.38;;;14.09;34.71
6524;BME280;3295;38.928;-77.052;2023-02-22T04:58:26;100633.38;;;14.10;34.48
6524;BME280;3295;38.928;-77.052;2023-02-22T05:00:56;100651.25;;;14.07;34.62
6524;BME280;3295;38.928;-77.052;2023-02-22T05:03:24;100665.78;;;14.08;34.37
6524;BME280;3295;38.928;-77.052;2023-02-22T05:05:52;100669.28;;;14.10;34.17
6524;BME280;3295;38.928;-77.052;2023-02-22T05:08:20;100672.66;;;14.09;33.79
6524;BME280;3295;38.928;-77.052;2023-02-22T05:10:48;100682.63;;;14.00;33.12
6524;BME280;3295;38.928;-77.052;2023-02-22T05:13:16;100665.00;;;13.84;32.18
6524;BME280;3295;38.928;-77.052;2023-02-22T05:15:45;100676.63;;;13.74;32.61
6524;BME280;3295;38.928;-77.052;2023-02-22T05:18:13;100664.78;;;13.52;32.08
6524;BME280;3295;38.928;-77.052;2023-02-22T05:20:41;100661.38;;;13.53;32.62
6524;BME280;3295;38.928;-77.052;2023-02-22T05:23:09;100664.50;;;13.45;31.96
6524;BME280;3295;38.928;-77.052;2023-02-22T05:25:36;100663.63;;;13.44;31.78
6524;BME280;3295;38.928;-77.052;2023-02-22T05:28:09;100672.56;;;13.56;31.70
6524;BME280;3295;38.928;-77.052;2023-02-22T05:30:38;100682.03;;;13.58;32.72
6524;BME280;3295;38.928;-77.052;2023-02-22T05:33:08;100688.22;;;13.39;38.15
6524;BME280;3295;38.928;-77.052;2023-02-22T05:35:36;100697.41;;;13.10;40.24
6524;BME280;3295;38.928;-77.052;2023-02-22T05:38:04;100698.88;;;12.81;41.26
6524;BME280;3295;38.928;-77.052;2023-02-22T05:40:32;100712.63;;;12.63;41.95
6524;BME280;3295;38.928;-77.052;2023-02-22T05:43:00;100722.97;;;12.43;42.44
6524;BME280;3295;38.928;-77.052;2023-02-22T05:45:28;100730.25;;;12.34;41.35
6524;BME280;3295;38.928;-77.052;2023-02-22T05:47:56;100752.31;;;12.32;41.61
6524;BME280;3295;38.928;-77.052;2023-02-22T05:50:26;100748.28;;;12.37;41.41
6524;BME280;3295;38.928;-77.052;2023-02-22T05:52:54;100762.44;;;12.50;40.93
6524;BME280;3295;38.928;-77.052;2023-02-22T05:55:23;100756.50;;;12.51;39.12
6524;BME280;3295;38.928;-77.052;2023-02-22T05:57:51;100759.88;;;12.50;38.62
6524;BME280;3295;38.928;-77.052;2023-02-22T06:00:21;100732.00;;;12.35;35.53
6524;BME280;3295;38.928;-77.052;2023-02-22T06:02:54;100734.56;;;12.56;33.58
6524;BME280;3295;38.928;-77.052;2023-02-22T06:05:22;100730.72;;;12.67;33.09
6524;BME280;3295;38.928;-77.052;2023-02-22T06:07:51;100729.31;;;12.75;32.93
6524;BME280;3295;38.928;-77.052;2023-02-22T06:10:20;100731.19;;;12.79;32.66
6524;BME280;3295;38.928;-77.052;2023-02-22T06:12:48;100734.75;;;12.83;33.33
6524;BME280;3295;38.928;-77.052;2023-02-22T06:15:17;100748.19;;;12.77;35.45
6524;BME280;3295;38.928;-77.052;2023-02-22T06:17:46;100760.38;;;12.62;40.40
6524;BME280;3295;38.928;-77.052;2023-02-22T06:20:16;100770.28;;;12.34;41.47
6524;BME280;3295;38.928;-77.052;2023-02-22T06:22:46;100767.03;;;11.96;42.44
6524;BME280;3295;38.928;-77.052;2023-02-22T06:25:16;100764.06;;;11.68;44.01
6524;BME280;3295;38.928;-77.052;2023-02-22T06:27:45;100766.06;;;11.56;43.77
6524;BME280;3295;38.928;-77.052;2023-02-22T06:30:15;100775.75;;;11.44;43.42
6524;BME280;3295;38.928;-77.052;2023-02-22T06:32:43;100786.91;;;11.46;44.66
6524;BME280;3295;38.928;-77.052;2023-02-22T06:35:11;100786.16;;;11.48;42.63
6524;BME280;3295;38.928;-77.052;2023-02-22T06:37:39;100786.75;;;11.43;37.62
6524;BME280;3295;38.928;-77.052;2023-02-22T06:40:07;100797.53;;;11.55;36.78
6524;BME280;3295;38.928;-77.052;2023-02-22T06:42:38;100791.06;;;11.63;35.91
6524;BME280;3295;38.928;-77.052;2023-02-22T06:45:06;100791.06;;;11.63;37.17
6524;BME280;3295;38.928;-77.052;2023-02-22T06:47:37;100795.63;;;11.51;38.22
6524;BME280;3295;38.928;-77.052;2023-02-22T06:50:07;100799.34;;;11.57;39.08
6524;BME280;3295;38.928;-77.052;2023-02-22T06:52:44;100795.13;;;11.58;40.15
6524;BME280;3295;38.928;-77.052;2023-02-22T06:55:16;100812.56;;;11.49;41.84
6524;BME280;3295;38.928;-77.052;2023-02-22T06:57:46;100814.72;;;11.39;42.20
6524;BME280;3295;38.928;-77.052;2023-02-22T07:00:16;100809.84;;;11.26;43.65
6524;BME280;3295;38.928;-77.052;2023-02-22T07:02:45;100805.78;;;11.12;44.27
6524;BME280;3295;38.928;-77.052;2023-02-22T07:05:15;100812.06;;;11.01;45.41
6524;BME280;3295;38.928;-77.052;2023-02-22T07:07:43;100816.06;;;10.96;45.64
6524;BME280;3295;38.928;-77.052;2023-02-22T07:10:18;100801.28;;;10.89;43.61
6524;BME280;3295;38.928;-77.052;2023-02-22T07:12:48;100789.47;;;10.73;45.10
6524;BME280;3295;38.928;-77.052;2023-02-22T07:15:18;100789.03;;;10.64;45.60
6524;BME280;3295;38.928;-77.052;2023-02-22T07:17:46;100788.03;;;10.60;45.56
6524;BME280;3295;38.928;-77.052;2023-02-22T07:20:15;100790.03;;;10.67;45.66
6524;BME280;3295;38.928;-77.052;2023-02-22T07:22:43;100805.00;;;10.78;44.29
6524;BME280;3295;38.928;-77.052;2023-02-22T07:25:11;100797.47;;;10.81;42.05
6524;BME280;3295;38.928;-77.052;2023-02-22T07:27:45;100787.13;;;10.95;40.43
6524;BME280;3295;38.928;-77.052;2023-02-22T07:30:18;100788.00;;;10.96;39.96
6524;BME280;3295;38.928;-77.052;2023-02-22T07:32:52;100792.16;;;10.94;42.20
6524;BME280;3295;38.928;-77.052;2023-02-22T07:35:23;100799.53;;;10.88;44.87
6524;BME280;3295;38.928;-77.052;2023-02-22T07:37:52;100793.84;;;10.76;44.04
6524;BME280;3295;38.928;-77.052;2023-02-22T07:40:21;100797.91;;;10.54;45.90
6524;BME280;3295;38.928;-77.052;2023-02-22T07:42:59;100805.47;;;10.35;47.00
6524;BME280;3295;38.928;-77.052;2023-02-22T07:45:29;100803.81;;;10.19;48.01
6524;BME280;3295;38.928;-77.052;2023-02-22T07:47:59;100800.28;;;10.17;47.18
6524;BME280;3295;38.928;-77.052;2023-02-22T07:50:30;100788.19;;;10.13;45.17
6524;BME280;3295;38.928;-77.052;2023-02-22T07:53:02;100776.38;;;9.97;43.51
6524;BME280;3295;38.928;-77.052;2023-02-22T07:55:31;100789.56;;;10.23;44.40
6524;BME280;3295;38.928;-77.052;2023-02-22T07:58:01;100779.13;;;10.18;40.94
6524;BME280;3295;38.928;-77.052;2023-02-22T08:00:32;100775.16;;;10.23;39.29
6524;BME280;3295;38.928;-77.052;2023-02-22T08:03:01;100784.88;;;10.48;39.12
6524;BME280;3295;38.928;-77.052;2023-02-22T08:05:30;100773.00;;;10.66;38.47
6524;BME280;3295;38.928;-77.052;2023-02-22T08:07:59;100777.59;;;10.74;35.27
6524;BME280;3295;38.928;-77.052;2023-02-22T08:10:27;100788.22;;;10.83;37.29
6524;BME280;3295;38.928;-77.052;2023-02-22T08:12:55;100807.13;;;10.86;39.06
6524;BME280;3295;38.928;-77.052;2023-02-22T08:15:25;100825.25;;;10.75;45.04
6524;BME280;3295;38.928;-77.052;2023-02-22T08:17:57;100835.19;;;10.52;45.74
6524;BME280;3295;38.928;-77.052;2023-02-22T08:20:26;100845.94;;;10.29;46.06
6524;BME280;3295;38.928;-77.052;2023-02-22T08:22:54;100862.31;;;10.18;45.65
6524;BME280;3295;38.928;-77.052;2023-02-22T08:25:27;100863.31;;;10.20;44.69
6524;BME280;3295;38.928;-77.052;2023-02-22T08:27:57;100849.16;;;10.25;43.19
6524;BME280;3295;38.928;-77.052;2023-02-22T08:30:29;100849.91;;;10.40;42.03
6524;BME280;3295;38.928;-77.052;2023-02-22T08:32:59;100847.03;;;10.50;41.65
6524;BME280;3295;38.928;-77.052;2023-02-22T08:35:29;100862.06;;;10.62;40.87
6524;BME280;3295;38.928;-77.052;2023-02-22T08:37:59;100858.44;;;10.75;38.96
6524;BME280;3295;38.928;-77.052;2023-02-22T08:41:27;100870.97;;;10.88;37.75
6524;BME280;3295;38.928;-77.052;2023-02-22T08:43:39;100878.41;;;11.01;36.19
6524;BME280;3295;38.928;-77.052;2023-02-22T08:46:07;100877.16;;;11.11;35.29
6524;BME280;3295;38.928;-77.052;2023-02-22T08:48:36;100884.25;;;11.16;40.42
6524;BME280;3295;38.928;-77.052;2023-02-22T08:51:04;100891.75;;;11.13;39.60
6524;BME280;3295;38.928;-77.052;2023-02-22T08:53:33;100891.34;;;11.04;36.64
6524;BME280;3295;38.928;-77.052;2023-02-22T08:56:01;100895.06;;;10.93;36.49
6524;BME280;3295;38.928;-77.052;2023-02-22T08:58:28;100892.13;;;11.03;39.08
6524;BME280;3295;38.928;-77.052;2023-02-22T09:00:56;100897.94;;;10.83;44.57
6524;BME280;3295;38.928;-77.052;2023-02-22T09:03:24;100910.44;;;10.60;48.09
6524;BME280;3295;38.928;-77.052;2023-02-22T09:05:54;100912.72;;;10.38;48.77
6524;BME280;3295;38.928;-77.052;2023-02-22T09:08:22;100921.69;;;10.31;46.55
6524;BME280;3295;38.928;-77.052;2023-02-22T09:10:50;100929.25;;;10.30;46.09
6524;BME280;3295;38.928;-77.052;2023-02-22T09:13:18;100924.50;;;10.36;46.01
6524;BME280;3295;38.928;-77.052;2023-02-22T09:15:46;100916.69;;;10.33;44.05
6524;BME280;3295;38.928;-77.052;2023-02-22T09:18:14;100923.03;;;10.41;43.15
6524;BME280;3295;38.928;-77.052;2023-02-22T09:20:43;100930.50;;;10.54;41.12
6524;BME280;3295;38.928;-77.052;2023-02-22T09:23:12;100932.25;;;10.55;41.65
6524;BME280;3295;38.928;-77.052;2023-02-22T09:25:40;100939.03;;;10.55;44.46
6524;BME280;3295;38.928;-77.052;2023-02-22T09:28:08;100950.91;;;10.54;44.66
6524;BME280;3295;38.928;-77.052;2023-02-22T09:30:37;100961.28;;;10.57;43.09
6524;BME280;3295;38.928;-77.052;2023-02-22T09:33:06;100966.22;;;10.54;45.64
6524;BME280;3295;38.928;-77.052;2023-02-22T09:35:56;100949.41;;;10.42;45.97
6524;BME280;3295;38.928;-77.052;2023-02-22T09:38:32;100943.47;;;10.25;46.78
6524;BME280;3295;38.928;-77.052;2023-02-22T09:41:09;100938.13;;;10.20;45.25
6524;BME280;3295;38.928;-77.052;2023-02-22T09:43:45;100952.16;;;10.14;47.26
6524;BME280;3295;38.928;-77.052;2023-02-22T09:46:22;100975.56;;;10.07;47.27
6524;BME280;3295;38.928;-77.052;2023-02-22T09:48:58;100985.94;;;10.10;46.64
6524;BME280;3295;38.928;-77.052;2023-02-22T09:51:30;100978.91;;;10.06;45.71
6524;BME280;3295;38.928;-77.052;2023-02-22T09:54:04;100975.22;;;10.01;44.69
6524;BME280;3295;38.928;-77.052;2023-02-22T09:56:34;100978.22;;;10.08;45.83
6524;BME280;3295;38.928;-77.052;2023-02-22T09:59:04;100974.66;;;10.21;45.32
6524;BME280;3295;38.928;-77.052;2023-02-22T10:01:38;100982.00;;;10.31;42.85
6524;BME280;3295;38.928;-77.052;2023-02-22T10:04:14;100983.59;;;10.45;44.12
6524;BME280;3295;38.928;-77.052;2023-02-22T10:07:00;100969.81;;;10.42;48.03
6524;BME280;3295;38.928;-77.052;2023-02-22T10:09:34;100965.13;;;10.33;47.66
6524;BME280;3295;38.928;-77.052;2023-02-22T10:12:08;100977.22;;;10.37;47.32
6524;BME280;3295;38.928;-77.052;2023-02-22T10:14:50;100984.97;;;10.39;46.46
6524;BME280;3295;38.928;-77.052;2023-02-22T10:17:29;100994.59;;;10.44;44.70
6524;BME280;3295;38.928;-77.052;2023-02-22T10:20:10;100986.31;;;10.48;43.77
6524;BME280;3295;38.928;-77.052;2023-02-22T10:23:06;100949.47;;;10.59;39.64
6524;BME280;3295;38.928;-77.052;2023-02-22T10:26:07;100948.19;;;10.67;46.25
6524;BME280;3295;38.928;-77.052;2023-02-22T10:29:15;100968.94;;;10.57;50.07
6524;BME280;3295;38.928;-77.052;2023-02-22T10:31:59;100971.31;;;10.54;43.41
6524;BME280;3295;38.928;-77.052;2023-02-22T10:35:02;100980.25;;;10.62;41.30
6524;BME280;3295;38.928;-77.052;2023-02-22T10:37:44;100989.47;;;10.77;37.37
6524;BME280;3295;38.928;-77.052;2023-02-22T10:40:20;100993.19;;;10.83;40.44
6524;BME280;3295;38.928;-77.052;2023-02-22T10:43:00;100996.78;;;10.87;40.72
6524;BME280;3295;38.928;-77.052;2023-02-22T10:45:30;101008.59;;;10.85;40.84
6524;BME280;3295;38.928;-77.052;2023-02-22T10:47:59;101008.03;;;10.90;39.20
6524;BME280;3295;38.928;-77.052;2023-02-22T10:50:31;100999.00;;;10.97;36.36
6524;BME280;3295;38.928;-77.052;2023-02-22T10:52:59;101002.97;;;11.08;41.68
6524;BME280;3295;38.928;-77.052;2023-02-22T10:55:27;101012.25;;;11.06;41.10
6524;BME280;3295;38.928;-77.052;2023-02-22T10:58:02;101012.56;;;10.96;37.29
6524;BME280;3295;38.928;-77.052;2023-02-22T11:00:33;101006.19;;;11.04;38.23
6524;BME280;3295;38.928;-77.052;2023-02-22T11:03:05;100999.59;;;11.09;38.63
6524;BME280;3295;38.928;-77.052;2023-02-22T11:05:43;100988.75;;;11.13;45.94
6524;BME280;3295;38.928;-77.052;2023-02-22T11:08:27;100992.00;;;10.93;46.92
6524;BME280;3295;38.928;-77.052;2023-02-22T11:11:00;100991.25;;;10.78;40.14
6524;BME280;3295;38.928;-77.052;2023-02-22T11:13:32;100979.28;;;10.60;36.03
6524;BME280;3295;38.928;-77.052;2023-02-22T11:16:16;100979.28;;;10.44;34.74
6524;BME280;3295;38.928;-77.052;2023-02-22T11:18:45;100990.19;;;10.58;38.14
6524;BME280;3295;38.928;-77.052;2023-02-22T11:21:21;100999.84;;;10.47;37.18
6524;BME280;3295;38.928;-77.052;2023-02-22T11:23:50;101007.16;;;10.41;36.01
6524;BME280;3295;38.928;-77.052;2023-02-22T11:26:27;100997.31;;;10.16;35.81
6524;BME280;3295;38.928;-77.052;2023-02-22T11:28:57;101022.63;;;10.28;34.88
6524;BME280;3295;38.928;-77.052;2023-02-22T11:31:28;101063.44;;;10.44;36.03
6524;BME280;3295;38.928;-77.052;2023-02-22T11:34:00;101069.50;;;10.62;35.68
6524;BME280;3295;38.928;-77.052;2023-02-22T11:36:31;101061.94;;;10.80;34.09
6524;BME280;3295;38.928;-77.052;2023-02-22T11:39:03;101049.59;;;10.88;34.58
6524;BME280;3295;38.928;-77.052;2023-02-22T11:41:36;101042.31;;;10.95;36.62
6524;BME280;3295;38.928;-77.052;2023-02-22T11:44:22;101030.13;;;10.74;35.72
6524;BME280;3295;38.928;-77.052;2023-02-22T11:46:51;101053.00;;;10.72;36.47
6524;BME280;3295;38.928;-77.052;2023-02-22T11:49:22;101052.84;;;10.53;35.11
6524;BME280;3295;38.928;-77.052;2023-02-22T11:52:09;101065.22;;;10.61;35.08
6524;BME280;3295;38.928;-77.052;2023-02-22T11:54:56;101099.47;;;10.66;35.01
6524;BME280;3295;38.928;-77.052;2023-02-22T11:57:35;101096.00;;;10.64;35.63
6524;BME280;3295;38.928;-77.052;2023-02-22T12:00:18;101103.50;;;10.78;34.66
6524;BME280;3295;38.928;-77.052;2023-02-22T12:03:12;101111.38;;;10.82;34.44
6524;BME280;3295;38.928;-77.052;2023-02-22T12:06:00;101102.75;;;10.96;34.95
6524;BME280;3295;38.928;-77.052;2023-02-22T12:08:39;101096.47;;;11.06;34.98
6524;BME280;3295;38.928;-77.052;2023-02-22T12:11:13;101096.75;;;11.12;35.63
6524;BME280;3295;38.928;-77.052;2023-02-22T12:13:58;101110.50;;;11.14;35.60
6524;BME280;3295;38.928;-77.052;2023-02-22T12:16:39;101116.13;;;11.25;36.42
6524;BME280;3295;38.928;-77.052;2023-02-22T12:19:20;101085.91;;;11.16;34.75
6524;BME280;3295;38.928;-77.052;2023-02-22T12:21:55;101107.38;;;11.20;36.49
6524;BME280;3295;38.928;-77.052;2023-02-22T12:24:26;101099.66;;;11.02;36.66
6524;BME280;3295;38.928;-77.052;2023-02-22T12:27:01;101103.00;;;10.85;35.76
6524;BME280;3295;38.928;-77.052;2023-02-22T12:29:35;101135.56;;;11.05;38.45
6524;BME280;3295;38.928;-77.052;2023-02-22T12:32:10;101145.84;;;11.07;36.36
6524;BME280;3295;38.928;-77.052;2023-02-22T12:34:42;101176.16;;;11.17;35.87
6524;BME280;3295;38.928;-77.052;2023-02-22T12:37:16;101166.31;;;11.24;35.42
6524;BME280;3295;38.928;-77.052;2023-02-22T12:39:59;101140.63;;;11.37;37.07
6524;BME280;3295;38.928;-77.052;2023-02-22T12:42:43;101149.84;;;11.52;36.64
6524;BME280;3295;38.928;-77.052;2023-02-22T12:45:24;101184.91;;;11.54;36.62
6524;BME280;3295;38.928;-77.052;2023-02-22T12:48:01;101198.38;;;11.68;35.54
6524;BME280;3295;38.928;-77.052;2023-02-22T12:50:34;101203.63;;;11.71;35.30
6524;BME280;3295;38.928;-77.052;2023-02-22T12:53:11;101185.91;;;11.74;35.04
6524;BME280;3295;38.928;-77.052;2023-02-22T12:55:44;101181.91;;;11.79;34.47
6524;BME280;3295;38.928;-77.052;2023-02-22T12:58:20;101182.97;;;11.83;35.34
6524;BME280;3295;38.928;-77.052;2023-02-22T13:00:57;101188.94;;;11.83;34.88
6524;BME280;3295;38.928;-77.052;2023-02-22T13:03:38;101188.31;;;11.87;34.14
6524;BME280;3295;38.928;-77.052;2023-02-22T13:06:23;101188.94;;;11.83;34.28
6524;BME280;3295;38.928;-77.052;2023-02-22T13:09:04;101193.41;;;11.87;35.94
6524;BME280;3295;38.928;-77.052;2023-02-22T13:11:40;101198.53;;;11.87;35.12
6524;BME280;3295;38.928;-77.052;2023-02-22T13:14:29;101194.44;;;11.91;34.24
6524;BME280;3295;38.928;-77.052;2023-02-22T13:17:06;101192.03;;;11.94;34.93
6524;BME280;3295;38.928;-77.052;2023-02-22T13:19:42;101182.84;;;11.97;34.99
6524;BME280;3295;38.928;-77.052;2023-02-22T13:22:18;101156.38;;;11.79;36.56
6524;BME280;3295;38.928;-77.052;2023-02-22T13:25:01;101144.63;;;11.66;36.17
6524;BME280;3295;38.928;-77.052;2023-02-22T13:27:36;101137.41;;;11.58;34.04
6524;BME280;3295;38.928;-77.052;2023-02-22T13:30:14;101158.19;;;11.65;34.68